sensor_id;sensor_type;location;lat;lon;timestamp;P1;durP1;ratioP1;P2;durP2;ratioP2
75496;SDS011;64074;47.540;19.072;2023-02-15T00:00:51;45.53;;;20.00;;
75496;SDS011;64074;47.540;19.072;2023-02-15T00:03:58;50.45;;;21.30;;
75496;SDS011;64074;47.540;19.072;2023-02-15T00:07:02;51.28;;;20.48;;
75496;SDS011;64074;47.540;19.072;2023-02-15T00:10:07;44.78;;;19.45;;
75496;SDS011;64074;47.540;19.072;2023-02-15T00:13:10;42.33;;;19.83;;
75496;SDS011;64074;47.540;19.072;2023-02-15T00:16:13;45.83;;;19.67;;
75496;SDS011;64074;47.540;19.072;2023-02-15T00:19:18;45.72;;;19.63;;
75496;SDS011;64074;47.540;19.072;2023-02-15T00:22:21;44.08;;;18.35;;
75496;SDS011;64074;47.540;19.072;2023-02-15T00:25:25;46.50;;;18.77;;
75496;SDS011;64074;47.540;19.072;2023-02-15T00:28:28;45.30;;;17.80;;
75496;SDS011;64074;47.540;19.072;2023-02-15T00:31:34;43.75;;;18.73;;
75496;SDS011;64074;47.540;19.072;2023-02-15T00:34:38;43.53;;;18.42;;
75496;SDS011;64074;47.540;19.072;2023-02-15T00:37:41;41.60;;;16.63;;
75496;SDS011;64074;47.540;19.072;2023-02-15T00:40:43;42.50;;;18.90;;
75496;SDS011;64074;47.540;19.072;2023-02-15T00:43:46;47.53;;;18.30;;
75496;SDS011;64074;47.540;19.072;2023-02-15T00:46:50;47.55;;;20.70;;
75496;SDS011;64074;47.540;19.072;2023-02-15T00:49:54;45.60;;;18.63;;
75496;SDS011;64074;47.540;19.072;2023-02-15T00:52:59;44.58;;;19.33;;
75496;SDS011;64074;47.540;19.072;2023-02-15T00:56:02;45.65;;;20.25;;
75496;SDS011;64074;47.540;19.072;2023-02-15T00:59:08;38.60;;;17.57;;
75496;SDS011;64074;47.540;19.072;2023-02-15T01:02:11;43.63;;;17.98;;
75496;SDS011;64074;47.540;19.072;2023-02-15T01:05:15;45.30;;;19.20;;
75496;SDS011;64074;47.540;19.072;2023-02-15T01:08:18;43.67;;;18.40;;
75496;SDS011;64074;47.540;19.072;2023-02-15T01:11:21;45.65;;;18.92;;
75496;SDS011;64074;47.540;19.072;2023-02-15T01:14:25;41.10;;;17.97;;
75496;SDS011;64074;47.540;19.072;2023-02-15T01:17:28;46.80;;;19.40;;
75496;SDS011;64074;47.540;19.072;2023-02-15T01:20:33;47.00;;;18.77;;
75496;SDS011;64074;47.540;19.072;2023-02-15T01:23:38;44.78;;;19.15;;
75496;SDS011;64074;47.540;19.072;2023-02-15T01:26:41;45.00;;;18.08;;
75496;SDS011;64074;47.540;19.072;2023-02-15T01:29:45;40.60;;;16.83;;
75496;SDS011;64074;47.540;19.072;2023-02-15T01:32:49;42.80;;;17.42;;
75496;SDS011;64074;47.540;19.072;2023-02-15T01:35:56;42.38;;;17.33;;
75496;SDS011;64074;47.540;19.072;2023-02-15T01:39:00;43.28;;;17.45;;
75496;SDS011;64074;47.540;19.072;2023-02-15T01:42:11;42.15;;;18.33;;
75496;SDS011;64074;47.540;19.072;2023-02-15T01:45:24;41.93;;;17.73;;
75496;SDS011;64074;47.540;19.072;2023-02-15T01:48:33;43.50;;;18.80;;
75496;SDS011;64074;47.540;19.072;2023-02-15T01:51:37;42.67;;;18.00;;
75496;SDS011;64074;47.540;19.072;2023-02-15T01:54:44;44.92;;;18.67;;
75496;SDS011;64074;47.540;19.072;2023-02-15T01:57:49;51.10;;;19.95;;
75496;SDS011;64074;47.540;19.072;2023-02-15T02:00:53;46.37;;;18.97;;
75496;SDS011;64074;47.540;19.072;2023-02-15T02:07:26;46.38;;;18.42;;
75496;SDS011;64074;47.540;19.072;2023-02-15T02:10:34;47.33;;;20.13;;
75496;SDS011;64074;47.540;19.072;2023-02-15T02:13:38;52.70;;;21.70;;
75496;SDS011;64074;47.540;19.072;2023-02-15T02:16:46;50.03;;;20.70;;
75496;SDS011;64074;47.540;19.072;2023-02-15T02:23:47;43.67;;;19.33;;
75496;SDS011;64074;47.540;19.072;2023-02-15T02:30:45;47.47;;;20.65;;
75496;SDS011;64074;47.540;19.072;2023-02-15T02:34:08;48.00;;;20.00;;
75496;SDS011;64074;47.540;19.072;2023-02-15T02:40:39;46.53;;;20.25;;
75496;SDS011;64074;47.540;19.072;2023-02-15T02:44:16;47.55;;;20.38;;
75496;SDS011;64074;47.540;19.072;2023-02-15T02:50:47;48.03;;;19.87;;
75496;SDS011;64074;47.540;19.072;2023-02-15T02:53:54;40.95;;;18.95;;
75496;SDS011;64074;47.540;19.072;2023-02-15T02:57:01;46.47;;;20.00;;
75496;SDS011;64074;47.540;19.072;2023-02-15T03:00:09;49.03;;;21.02;;
75496;SDS011;64074;47.540;19.072;2023-02-15T03:03:20;51.78;;;22.70;;
75496;SDS011;64074;47.540;19.072;2023-02-15T03:06:51;50.27;;;21.50;;
75496;SDS011;64074;47.540;19.072;2023-02-15T03:09:56;51.67;;;20.55;;
75496;SDS011;64074;47.540;19.072;2023-02-15T03:13:01;47.70;;;20.88;;
75496;SDS011;64074;47.540;19.072;2023-02-15T03:16:04;55.92;;;24.23;;
75496;SDS011;64074;47.540;19.072;2023-02-15T03:19:28;57.58;;;24.00;;
75496;SDS011;64074;47.540;19.072;2023-02-15T03:22:38;52.17;;;22.90;;
75496;SDS011;64074;47.540;19.072;2023-02-15T03:25:52;50.03;;;22.55;;
75496;SDS011;64074;47.540;19.072;2023-02-15T03:29:01;58.95;;;22.98;;
75496;SDS011;64074;47.540;19.072;2023-02-15T03:32:09;52.25;;;22.77;;
75496;SDS011;64074;47.540;19.072;2023-02-15T03:35:14;51.13;;;22.42;;
75496;SDS011;64074;47.540;19.072;2023-02-15T03:38:20;52.23;;;22.17;;
75496;SDS011;64074;47.540;19.072;2023-02-15T03:41:50;56.25;;;22.30;;
75496;SDS011;64074;47.540;19.072;2023-02-15T03:45:22;54.13;;;22.10;;
75496;SDS011;64074;47.540;19.072;2023-02-15T03:48:33;54.47;;;22.45;;
75496;SDS011;64074;47.540;19.072;2023-02-15T03:51:40;51.90;;;21.42;;
75496;SDS011;64074;47.540;19.072;2023-02-15T03:54:46;56.07;;;22.60;;
75496;SDS011;64074;47.540;19.072;2023-02-15T03:57:49;47.95;;;21.42;;
75496;SDS011;64074;47.540;19.072;2023-02-15T04:01:19;50.85;;;22.02;;
75496;SDS011;64074;47.540;19.072;2023-02-15T04:04:45;50.75;;;21.08;;
75496;SDS011;64074;47.540;19.072;2023-02-15T04:07:50;53.17;;;21.60;;
75496;SDS011;64074;47.540;19.072;2023-02-15T04:10:52;47.10;;;21.23;;
75496;SDS011;64074;47.540;19.072;2023-02-15T04:13:56;48.17;;;20.90;;
75496;SDS011;64074;47.540;19.072;2023-02-15T04:17:00;49.72;;;21.70;;
75496;SDS011;64074;47.540;19.072;2023-02-15T04:20:03;48.17;;;21.30;;
75496;SDS011;64074;47.540;19.072;2023-02-15T04:23:26;51.72;;;24.27;;
75496;SDS011;64074;47.540;19.072;2023-02-15T04:26:47;51.17;;;21.20;;
75496;SDS011;64074;47.540;19.072;2023-02-15T04:29:51;54.35;;;21.80;;
75496;SDS011;64074;47.540;19.072;2023-02-15T04:32:54;54.78;;;24.52;;
75496;SDS011;64074;47.540;19.072;2023-02-15T04:35:59;55.15;;;22.75;;
75496;SDS011;64074;47.540;19.072;2023-02-15T04:39:04;50.55;;;21.90;;
75496;SDS011;64074;47.540;19.072;2023-02-15T04:42:08;49.70;;;20.63;;
75496;SDS011;64074;47.540;19.072;2023-02-15T04:45:11;49.63;;;21.40;;
75496;SDS011;64074;47.540;19.072;2023-02-15T04:48:13;52.22;;;22.08;;
75496;SDS011;64074;47.540;19.072;2023-02-15T04:51:16;51.38;;;21.92;;
75496;SDS011;64074;47.540;19.072;2023-02-15T04:54:19;49.20;;;21.75;;
75496;SDS011;64074;47.540;19.072;2023-02-15T04:57:23;50.00;;;21.30;;
75496;SDS011;64074;47.540;19.072;2023-02-15T05:00:26;51.20;;;21.55;;
75496;SDS011;64074;47.540;19.072;2023-02-15T05:03:29;51.67;;;22.00;;
75496;SDS011;64074;47.540;19.072;2023-02-15T05:06:32;48.47;;;20.98;;
75496;SDS011;64074;47.540;19.072;2023-02-15T05:09:38;47.95;;;19.58;;
75496;SDS011;64074;47.540;19.072;2023-02-15T05:12:41;50.67;;;19.37;;
75496;SDS011;64074;47.540;19.072;2023-02-15T05:15:50;51.03;;;19.27;;
75496;SDS011;64074;47.540;19.072;2023-02-15T05:18:54;45.90;;;19.30;;
75496;SDS011;64074;47.540;19.072;2023-02-15T05:21:57;43.90;;;18.02;;
75496;SDS011;64074;47.540;19.072;2023-02-15T05:25:00;44.20;;;18.58;;
75496;SDS011;64074;47.540;19.072;2023-02-15T05:28:22;44.63;;;19.43;;
75496;SDS011;64074;47.540;19.072;2023-02-15T05:31:31;50.55;;;20.02;;
75496;SDS011;64074;47.540;19.072;2023-02-15T05:34:35;49.13;;;19.25;;
75496;SDS011;64074;47.540;19.072;2023-02-15T05:37:39;48.53;;;18.48;;
75496;SDS011;64074;47.540;19.072;2023-02-15T05:40:41;47.88;;;19.45;;
75496;SDS011;64074;47.540;19.072;2023-02-15T05:43:45;49.47;;;20.10;;
75496;SDS011;64074;47.540;19.072;2023-02-15T05:46:48;47.80;;;18.85;;
75496;SDS011;64074;47.540;19.072;2023-02-15T05:49:51;46.20;;;19.05;;
75496;SDS011;64074;47.540;19.072;2023-02-15T05:52:54;50.95;;;19.73;;
75496;SDS011;64074;47.540;19.072;2023-02-15T05:55:56;49.30;;;19.63;;
75496;SDS011;64074;47.540;19.072;2023-02-15T05:59:02;48.07;;;20.13;;
75496;SDS011;64074;47.540;19.072;2023-02-15T06:02:05;45.70;;;19.60;;
75496;SDS011;64074;47.540;19.072;2023-02-15T06:05:09;52.38;;;20.13;;
75496;SDS011;64074;47.540;19.072;2023-02-15T06:08:12;41.65;;;19.00;;
75496;SDS011;64074;47.540;19.072;2023-02-15T06:11:15;45.60;;;17.83;;
75496;SDS011;64074;47.540;19.072;2023-02-15T06:14:18;44.20;;;19.57;;
75496;SDS011;64074;47.540;19.072;2023-02-15T06:17:21;44.13;;;18.00;;
75496;SDS011;64074;47.540;19.072;2023-02-15T06:20:24;40.13;;;17.60;;
75496;SDS011;64074;47.540;19.072;2023-02-15T06:23:28;42.83;;;17.95;;
75496;SDS011;64074;47.540;19.072;2023-02-15T06:26:30;46.03;;;17.80;;
75496;SDS011;64074;47.540;19.072;2023-02-15T06:29:33;43.43;;;18.90;;
75496;SDS011;64074;47.540;19.072;2023-02-15T06:32:36;43.60;;;18.73;;
75496;SDS011;64074;47.540;19.072;2023-02-15T06:35:39;42.95;;;18.23;;
75496;SDS011;64074;47.540;19.072;2023-02-15T06:38:42;49.75;;;19.70;;
75496;SDS011;64074;47.540;19.072;2023-02-15T06:41:45;49.80;;;20.90;;
75496;SDS011;64074;47.540;19.072;2023-02-15T06:44:48;53.00;;;21.47;;
75496;SDS011;64074;47.540;19.072;2023-02-15T06:47:51;50.38;;;22.10;;
75496;SDS011;64074;47.540;19.072;2023-02-15T06:50:55;51.80;;;21.75;;
75496;SDS011;64074;47.540;19.072;2023-02-15T06:53:59;51.72;;;21.88;;
75496;SDS011;64074;47.540;19.072;2023-02-15T06:57:15;54.10;;;21.73;;
75496;SDS011;64074;47.540;19.072;2023-02-15T07:00:59;54.63;;;22.70;;
75496;SDS011;64074;47.540;19.072;2023-02-15T07:04:03;51.35;;;22.02;;
75496;SDS011;64074;47.540;19.072;2023-02-15T07:07:10;57.30;;;23.30;;
75496;SDS011;64074;47.540;19.072;2023-02-15T07:10:35;54.75;;;22.48;;
75496;SDS011;64074;47.540;19.072;2023-02-15T07:13:38;54.55;;;23.58;;
75496;SDS011;64074;47.540;19.072;2023-02-15T07:16:42;55.23;;;22.00;;
75496;SDS011;64074;47.540;19.072;2023-02-15T07:19:52;54.30;;;23.08;;
75496;SDS011;64074;47.540;19.072;2023-02-15T07:23:01;51.15;;;23.60;;
75496;SDS011;64074;47.540;19.072;2023-02-15T07:26:10;52.85;;;23.17;;
75496;SDS011;64074;47.540;19.072;2023-02-15T07:29:47;57.80;;;23.73;;
75496;SDS011;64074;47.540;19.072;2023-02-15T07:32:54;58.50;;;24.63;;
75496;SDS011;64074;47.540;19.072;2023-02-15T07:36:23;50.97;;;23.20;;
75496;SDS011;64074;47.540;19.072;2023-02-15T07:39:26;52.78;;;24.02;;
75496;SDS011;64074;47.540;19.072;2023-02-15T07:42:30;53.55;;;24.13;;
75496;SDS011;64074;47.540;19.072;2023-02-15T07:45:33;56.20;;;24.05;;
75496;SDS011;64074;47.540;19.072;2023-02-15T07:48:48;59.27;;;22.93;;
75496;SDS011;64074;47.540;19.072;2023-02-15T07:51:52;50.28;;;22.52;;
75496;SDS011;64074;47.540;19.072;2023-02-15T07:55:09;53.30;;;22.90;;
75496;SDS011;64074;47.540;19.072;2023-02-15T07:58:16;46.55;;;20.88;;
75496;SDS011;64074;47.540;19.072;2023-02-15T08:01:20;53.40;;;21.92;;
75496;SDS011;64074;47.540;19.072;2023-02-15T08:04:26;53.10;;;22.67;;
75496;SDS011;64074;47.540;19.072;2023-02-15T08:07:29;50.13;;;22.63;;
75496;SDS011;64074;47.540;19.072;2023-02-15T08:10:34;50.40;;;22.30;;
75496;SDS011;64074;47.540;19.072;2023-02-15T08:14:16;51.40;;;23.40;;
75496;SDS011;64074;47.540;19.072;2023-02-15T08:17:23;52.97;;;23.33;;
75496;SDS011;64074;47.540;19.072;2023-02-15T08:20:29;49.33;;;22.60;;
75496;SDS011;64074;47.540;19.072;2023-02-15T08:23:33;55.55;;;25.08;;
75496;SDS011;64074;47.540;19.072;2023-02-15T08:26:41;50.30;;;23.58;;
75496;SDS011;64074;47.540;19.072;2023-02-15T08:29:47;54.85;;;24.33;;
75496;SDS011;64074;47.540;19.072;2023-02-15T08:32:50;53.58;;;25.10;;
75496;SDS011;64074;47.540;19.072;2023-02-15T08:35:54;56.37;;;23.83;;
75496;SDS011;64074;47.540;19.072;2023-02-15T08:39:01;58.92;;;24.00;;
75496;SDS011;64074;47.540;19.072;2023-02-15T08:42:08;54.30;;;24.98;;
75496;SDS011;64074;47.540;19.072;2023-02-15T08:45:12;58.83;;;25.38;;
75496;SDS011;64074;47.540;19.072;2023-02-15T08:48:17;56.67;;;25.33;;
75496;SDS011;64074;47.540;19.072;2023-02-15T08:51:26;53.00;;;24.63;;
75496;SDS011;64074;47.540;19.072;2023-02-15T08:54:58;47.40;;;22.38;;
75496;SDS011;64074;47.540;19.072;2023-02-15T08:58:02;49.03;;;21.95;;
75496;SDS011;64074;47.540;19.072;2023-02-15T09:01:09;48.55;;;22.27;;
75496;SDS011;64074;47.540;19.072;2023-02-15T09:04:38;50.28;;;22.25;;
75496;SDS011;64074;47.540;19.072;2023-02-15T09:07:42;50.33;;;24.93;;
75496;SDS011;64074;47.540;19.072;2023-02-15T09:10:46;47.83;;;21.10;;
75496;SDS011;64074;47.540;19.072;2023-02-15T09:13:51;44.35;;;20.80;;
75496;SDS011;64074;47.540;19.072;2023-02-15T09:16:58;48.08;;;20.33;;
75496;SDS011;64074;47.540;19.072;2023-02-15T09:20:01;45.95;;;20.38;;
75496;SDS011;64074;47.540;19.072;2023-02-15T09:23:05;41.90;;;20.30;;
75496;SDS011;64074;47.540;19.072;2023-02-15T09:26:11;46.97;;;21.45;;
75496;SDS011;64074;47.540;19.072;2023-02-15T09:29:16;45.03;;;20.83;;
75496;SDS011;64074;47.540;19.072;2023-02-15T09:32:21;41.97;;;19.55;;
75496;SDS011;64074;47.540;19.072;2023-02-15T09:35:24;44.15;;;20.40;;
75496;SDS011;64074;47.540;19.072;2023-02-15T09:38:28;41.73;;;21.23;;
75496;SDS011;64074;47.540;19.072;2023-02-15T09:49:11;44.85;;;21.10;;
75496;SDS011;64074;47.540;19.072;2023-02-15T09:56:32;47.10;;;21.23;;
75496;SDS011;64074;47.540;19.072;2023-02-15T10:07:37;44.65;;;21.13;;
75496;SDS011;64074;47.540;19.072;2023-02-15T10:21:38;46.47;;;20.48;;
75496;SDS011;64074;47.540;19.072;2023-02-15T10:28:48;42.97;;;19.60;;
75496;SDS011;64074;47.540;19.072;2023-02-15T10:43:08;35.78;;;15.80;;
75496;SDS011;64074;47.540;19.072;2023-02-15T10:46:32;42.80;;;18.08;;
75496;SDS011;64074;47.540;19.072;2023-02-15T10:50:11;36.57;;;16.97;;
75496;SDS011;64074;47.540;19.072;2023-02-15T11:00:14;39.50;;;18.02;;
75496;SDS011;64074;47.540;19.072;2023-02-15T11:06:59;41.50;;;19.57;;
75496;SDS011;64074;47.540;19.072;2023-02-15T11:13:48;41.75;;;18.25;;
75496;SDS011;64074;47.540;19.072;2023-02-15T11:16:57;41.53;;;18.88;;
75496;SDS011;64074;47.540;19.072;2023-02-15T11:20:27;47.65;;;20.92;;
75496;SDS011;64074;47.540;19.072;2023-02-15T11:23:44;47.87;;;21.90;;
75496;SDS011;64074;47.540;19.072;2023-02-15T11:30:23;48.05;;;19.80;;
75496;SDS011;64074;47.540;19.072;2023-02-15T11:33:34;41.63;;;19.05;;
75496;SDS011;64074;47.540;19.072;2023-02-15T11:36:40;42.90;;;18.67;;
75496;SDS011;64074;47.540;19.072;2023-02-15T11:39:48;40.37;;;18.63;;
75496;SDS011;64074;47.540;19.072;2023-02-15T11:42:55;40.40;;;18.80;;
75496;SDS011;64074;47.540;19.072;2023-02-15T11:46:02;40.67;;;19.38;;
75496;SDS011;64074;47.540;19.072;2023-02-15T11:49:14;43.45;;;19.65;;
75496;SDS011;64074;47.540;19.072;2023-02-15T11:52:33;43.95;;;18.88;;
75496;SDS011;64074;47.540;19.072;2023-02-15T11:55:37;40.80;;;18.83;;
75496;SDS011;64074;47.540;19.072;2023-02-15T12:02:13;40.33;;;17.42;;
75496;SDS011;64074;47.540;19.072;2023-02-15T12:05:24;38.75;;;18.27;;
75496;SDS011;64074;47.540;19.072;2023-02-15T12:08:33;37.22;;;17.92;;
75496;SDS011;64074;47.540;19.072;2023-02-15T12:11:48;38.87;;;19.13;;
75496;SDS011;64074;47.540;19.072;2023-02-15T12:14:58;43.17;;;19.63;;
75496;SDS011;64074;47.540;19.072;2023-02-15T12:18:37;42.70;;;20.40;;
75496;SDS011;64074;47.540;19.072;2023-02-15T12:21:41;40.92;;;20.33;;
75496;SDS011;64074;47.540;19.072;2023-02-15T12:24:46;38.08;;;17.75;;
75496;SDS011;64074;47.540;19.072;2023-02-15T12:27:50;40.17;;;17.57;;
75496;SDS011;64074;47.540;19.072;2023-02-15T12:30:54;39.05;;;18.25;;
75496;SDS011;64074;47.540;19.072;2023-02-15T12:33:59;43.65;;;21.45;;
75496;SDS011;64074;47.540;19.072;2023-02-15T12:37:10;45.05;;;20.38;;
75496;SDS011;64074;47.540;19.072;2023-02-15T12:40:25;45.20;;;20.38;;
75496;SDS011;64074;47.540;19.072;2023-02-15T12:43:34;42.97;;;20.43;;
75496;SDS011;64074;47.540;19.072;2023-02-15T12:46:39;42.47;;;20.88;;
75496;SDS011;64074;47.540;19.072;2023-02-15T12:50:06;41.15;;;19.30;;
75496;SDS011;64074;47.540;19.072;2023-02-15T12:53:31;39.25;;;19.73;;
75496;SDS011;64074;47.540;19.072;2023-02-15T12:56:36;39.28;;;19.13;;
75496;SDS011;64074;47.540;19.072;2023-02-15T12:59:56;43.30;;;19.53;;
75496;SDS011;64074;47.540;19.072;2023-02-15T13:03:19;45.67;;;20.65;;
75496;SDS011;64074;47.540;19.072;2023-02-15T13:10:53;50.42;;;20.15;;
75496;SDS011;64074;47.540;19.072;2023-02-15T13:14:01;43.67;;;19.88;;
75496;SDS011;64074;47.540;19.072;2023-02-15T13:17:07;50.73;;;19.07;;
75496;SDS011;64074;47.540;19.072;2023-02-15T13:20:16;55.10;;;20.08;;
75496;SDS011;64074;47.540;19.072;2023-02-15T13:23:27;39.80;;;19.60;;
75496;SDS011;64074;47.540;19.072;2023-02-15T13:26:32;38.25;;;18.60;;
75496;SDS011;64074;47.540;19.072;2023-02-15T13:29:38;38.55;;;18.48;;
75496;SDS011;64074;47.540;19.072;2023-02-15T13:32:42;36.07;;;16.70;;
75496;SDS011;64074;47.540;19.072;2023-02-15T13:35:48;39.13;;;16.40;;
75496;SDS011;64074;47.540;19.072;2023-02-15T13:42:30;35.83;;;16.77;;
75496;SDS011;64074;47.540;19.072;2023-02-15T13:45:48;37.72;;;16.25;;
75496;SDS011;64074;47.540;19.072;2023-02-15T13:49:06;31.33;;;15.87;;
75496;SDS011;64074;47.540;19.072;2023-02-15T13:52:25;33.88;;;15.27;;
75496;SDS011;64074;47.540;19.072;2023-02-15T13:55:36;32.08;;;15.40;;
75496;SDS011;64074;47.540;19.072;2023-02-15T14:31:01;33.83;;;15.70;;
75496;SDS011;64074;47.540;19.072;2023-02-15T14:34:08;32.65;;;14.98;;
75496;SDS011;64074;47.540;19.072;2023-02-15T14:44:15;37.67;;;16.73;;
75496;SDS011;64074;47.540;19.072;2023-02-15T14:48:35;40.00;;;16.08;;
75496;SDS011;64074;47.540;19.072;2023-02-15T14:55:11;30.70;;;15.32;;
75496;SDS011;64074;47.540;19.072;2023-02-15T14:59:18;31.03;;;15.37;;
75496;SDS011;64074;47.540;19.072;2023-02-15T15:02:31;32.88;;;14.43;;
75496;SDS011;64074;47.540;19.072;2023-02-15T15:05:48;34.90;;;15.88;;
75496;SDS011;64074;47.540;19.072;2023-02-15T15:08:55;39.47;;;16.73;;
75496;SDS011;64074;47.540;19.072;2023-02-15T15:12:15;33.33;;;15.65;;
75496;SDS011;64074;47.540;19.072;2023-02-15T15:18:44;34.25;;;15.60;;
75496;SDS011;64074;47.540;19.072;2023-02-15T15:24:55;35.47;;;15.73;;
75496;SDS011;64074;47.540;19.072;2023-02-15T15:27:59;37.83;;;16.30;;
75496;SDS011;64074;47.540;19.072;2023-02-15T15:31:24;32.00;;;15.40;;
75496;SDS011;64074;47.540;19.072;2023-02-15T15:38:08;35.33;;;16.25;;
75496;SDS011;64074;47.540;19.072;2023-02-15T15:48:30;38.17;;;15.17;;
75496;SDS011;64074;47.540;19.072;2023-02-15T15:51:39;35.42;;;15.93;;
75496;SDS011;64074;47.540;19.072;2023-02-15T15:54:44;31.92;;;16.00;;
75496;SDS011;64074;47.540;19.072;2023-02-15T15:57:51;40.80;;;16.63;;
75496;SDS011;64074;47.540;19.072;2023-02-15T16:01:07;39.20;;;16.98;;
75496;SDS011;64074;47.540;19.072;2023-02-15T16:04:22;35.63;;;16.53;;
75496;SDS011;64074;47.540;19.072;2023-02-15T16:07:30;35.70;;;16.77;;
75496;SDS011;64074;47.540;19.072;2023-02-15T16:10:34;34.10;;;16.02;;
75496;SDS011;64074;47.540;19.072;2023-02-15T16:13:40;42.17;;;16.52;;
75496;SDS011;64074;47.540;19.072;2023-02-15T16:16:49;37.88;;;16.02;;
75496;SDS011;64074;47.540;19.072;2023-02-15T16:20:00;39.70;;;16.80;;
75496;SDS011;64074;47.540;19.072;2023-02-15T16:23:26;34.55;;;16.48;;
75496;SDS011;64074;47.540;19.072;2023-02-15T16:29:47;36.58;;;15.13;;
75496;SDS011;64074;47.540;19.072;2023-02-15T16:32:54;42.97;;;15.75;;
75496;SDS011;64074;47.540;19.072;2023-02-15T16:36:12;37.43;;;15.63;;
75496;SDS011;64074;47.540;19.072;2023-02-15T16:39:24;33.55;;;16.02;;
75496;SDS011;64074;47.540;19.072;2023-02-15T16:42:26;34.50;;;15.95;;
75496;SDS011;64074;47.540;19.072;2023-02-15T16:45:31;35.30;;;15.13;;
75496;SDS011;64074;47.540;19.072;2023-02-15T16:48:34;38.28;;;16.73;;
75496;SDS011;64074;47.540;19.072;2023-02-15T16:51:45;35.77;;;15.77;;
75496;SDS011;64074;47.540;19.072;2023-02-15T16:54:59;41.25;;;17.05;;
75496;SDS011;64074;47.540;19.072;2023-02-15T16:58:05;44.45;;;16.20;;
75496;SDS011;64074;47.540;19.072;2023-02-15T17:01:14;37.60;;;16.55;;
75496;SDS011;64074;47.540;19.072;2023-02-15T17:07:25;71.73;;;30.73;;
75496;SDS011;64074;47.540;19.072;2023-02-15T17:10:38;42.83;;;18.02;;
75496;SDS011;64074;47.540;19.072;2023-02-15T17:17:07;45.40;;;16.65;;
75496;SDS011;64074;47.540;19.072;2023-02-15T17:20:18;36.97;;;17.25;;
75496;SDS011;64074;47.540;19.072;2023-02-15T17:26:38;44.40;;;18.38;;
75496;SDS011;64074;47.540;19.072;2023-02-15T17:29:47;42.72;;;18.58;;
75496;SDS011;64074;47.540;19.072;2023-02-15T17:33:02;45.60;;;17.58;;
75496;SDS011;64074;47.540;19.072;2023-02-15T17:36:20;41.85;;;18.25;;
75496;SDS011;64074;47.540;19.072;2023-02-15T17:39:26;39.53;;;16.93;;
75496;SDS011;64074;47.540;19.072;2023-02-15T17:42:29;41.05;;;16.73;;
75496;SDS011;64074;47.540;19.072;2023-02-15T17:45:33;38.72;;;16.88;;
75496;SDS011;64074;47.540;19.072;2023-02-15T17:48:45;37.17;;;16.58;;
75496;SDS011;64074;47.540;19.072;2023-02-15T17:51:49;43.28;;;16.05;;
75496;SDS011;64074;47.540;19.072;2023-02-15T17:54:53;39.37;;;17.60;;
75496;SDS011;64074;47.540;19.072;2023-02-15T17:58:16;36.58;;;16.38;;
75496;SDS011;64074;47.540;19.072;2023-02-15T18:01:25;40.20;;;17.88;;
75496;SDS011;64074;47.540;19.072;2023-02-15T18:04:47;38.08;;;17.00;;
75496;SDS011;64074;47.540;19.072;2023-02-15T18:08:10;43.78;;;18.30;;
75496;SDS011;64074;47.540;19.072;2023-02-15T18:11:35;42.80;;;17.73;;
75496;SDS011;64074;47.540;19.072;2023-02-15T18:14:42;39.08;;;17.80;;
75496;SDS011;64074;47.540;19.072;2023-02-15T18:17:45;41.55;;;18.75;;
75496;SDS011;64074;47.540;19.072;2023-02-15T18:20:49;40.78;;;17.60;;
75496;SDS011;64074;47.540;19.072;2023-02-15T18:23:53;40.47;;;17.95;;
75496;SDS011;64074;47.540;19.072;2023-02-15T18:26:56;41.63;;;17.67;;
75496;SDS011;64074;47.540;19.072;2023-02-15T18:29:59;43.45;;;18.88;;
75496;SDS011;64074;47.540;19.072;2023-02-15T18:33:02;45.20;;;18.85;;
75496;SDS011;64074;47.540;19.072;2023-02-15T18:36:07;46.53;;;18.70;;
75496;SDS011;64074;47.540;19.072;2023-02-15T18:42:49;48.33;;;18.53;;
75496;SDS011;64074;47.540;19.072;2023-02-15T18:45:53;47.90;;;18.55;;
75496;SDS011;64074;47.540;19.072;2023-02-15T18:48:57;48.03;;;19.20;;
75496;SDS011;64074;47.540;19.072;2023-02-15T18:52:01;47.75;;;19.35;;
75496;SDS011;64074;47.540;19.072;2023-02-15T18:55:12;59.35;;;22.88;;
75496;SDS011;64074;47.540;19.072;2023-02-15T18:58:20;50.80;;;20.57;;
75496;SDS011;64074;47.540;19.072;2023-02-15T19:01:24;47.53;;;20.50;;
75496;SDS011;64074;47.540;19.072;2023-02-15T19:04:28;55.78;;;23.13;;
75496;SDS011;64074;47.540;19.072;2023-02-15T19:07:35;58.03;;;22.48;;
75496;SDS011;64074;47.540;19.072;2023-02-15T19:10:40;55.33;;;22.73;;
75496;SDS011;64074;47.540;19.072;2023-02-15T19:13:43;52.47;;;22.73;;
75496;SDS011;64074;47.540;19.072;2023-02-15T19:16:47;54.90;;;23.15;;
75496;SDS011;64074;47.540;19.072;2023-02-15T19:19:51;55.08;;;21.83;;
75496;SDS011;64074;47.540;19.072;2023-02-15T19:22:55;56.10;;;22.77;;
75496;SDS011;64074;47.540;19.072;2023-02-15T19:26:03;56.85;;;22.35;;
75496;SDS011;64074;47.540;19.072;2023-02-15T19:29:08;53.80;;;21.27;;
75496;SDS011;64074;47.540;19.072;2023-02-15T19:32:14;54.85;;;22.50;;
75496;SDS011;64074;47.540;19.072;2023-02-15T19:35:20;50.58;;;20.15;;
75496;SDS011;64074;47.540;19.072;2023-02-15T19:38:25;53.03;;;20.23;;
75496;SDS011;64074;47.540;19.072;2023-02-15T19:41:33;54.83;;;19.90;;
75496;SDS011;64074;47.540;19.072;2023-02-15T19:44:36;51.47;;;19.70;;
75496;SDS011;64074;47.540;19.072;2023-02-15T19:47:42;57.42;;;20.60;;
75496;SDS011;64074;47.540;19.072;2023-02-15T19:50:47;52.90;;;20.83;;
75496;SDS011;64074;47.540;19.072;2023-02-15T19:53:51;49.83;;;20.00;;
75496;SDS011;64074;47.540;19.072;2023-02-15T19:56:56;51.05;;;18.98;;
75496;SDS011;64074;47.540;19.072;2023-02-15T19:59:59;48.03;;;18.60;;
75496;SDS011;64074;47.540;19.072;2023-02-15T20:03:22;50.97;;;19.35;;
75496;SDS011;64074;47.540;19.072;2023-02-15T20:06:25;60.25;;;22.95;;
75496;SDS011;64074;47.540;19.072;2023-02-15T20:09:32;59.35;;;22.67;;
75496;SDS011;64074;47.540;19.072;2023-02-15T20:12:39;55.47;;;21.92;;
75496;SDS011;64074;47.540;19.072;2023-02-15T20:15:45;52.00;;;21.13;;
75496;SDS011;64074;47.540;19.072;2023-02-15T20:18:49;52.08;;;21.33;;
75496;SDS011;64074;47.540;19.072;2023-02-15T20:21:53;51.35;;;22.02;;
75496;SDS011;64074;47.540;19.072;2023-02-15T20:24:57;54.45;;;21.17;;
75496;SDS011;64074;47.540;19.072;2023-02-15T20:28:01;49.35;;;21.45;;
75496;SDS011;64074;47.540;19.072;2023-02-15T20:31:08;57.47;;;21.47;;
75496;SDS011;64074;47.540;19.072;2023-02-15T20:34:22;52.97;;;22.75;;
75496;SDS011;64074;47.540;19.072;2023-02-15T20:37:26;56.92;;;21.98;;
75496;SDS011;64074;47.540;19.072;2023-02-15T20:40:35;57.97;;;22.88;;
75496;SDS011;64074;47.540;19.072;2023-02-15T20:47:24;53.33;;;21.90;;
75496;SDS011;64074;47.540;19.072;2023-02-15T20:50:30;55.35;;;22.55;;
75496;SDS011;64074;47.540;19.072;2023-02-15T20:53:34;59.10;;;22.10;;
75496;SDS011;64074;47.540;19.072;2023-02-15T20:56:37;57.25;;;22.40;;
75496;SDS011;64074;47.540;19.072;2023-02-15T20:59:40;55.92;;;22.45;;